sensor_id;sensor_type;location;lat;lon;timestamp;pressure;altitude;pressure_sealevel;temperature;humidity
38880;BME280;25887;30.194;-97.880;2023-03-21T00:00:39;98873.38;;;15.32;44.42
38880;BME280;25887;30.194;-97.880;2023-03-21T00:03:05;98872.53;;;15.32;44.80
38880;BME280;25887;30.194;-97.880;2023-03-21T00:05:32;98878.56;;;15.31;44.97
38880;BME280;25887;30.194;-97.880;2023-03-21T00:07:58;98869.09;;;15.30;44.84
38880;BME280;25887;30.194;-97.880;2023-03-21T00:10:25;98872.53;;;15.32;44.94
38880;BME280;25887;30.194;-97.880;2023-03-21T00:13:21;98871.66;;;15.35;45.00
38880;BME280;25887;30.194;-97.880;2023-03-21T00:15:47;98876.88;;;15.30;45.35
38880;BME280;25887;30.194;-97.880;2023-03-21T00:18:22;98870.84;;;15.28;45.76
38880;BME280;25887;30.194;-97.880;2023-03-21T00:20:57;98868.28;;;15.26;45.76
38880;BME280;25887;30.194;-97.880;2023-03-21T00:23:25;98863.13;;;15.23;46.06
38880;BME280;25887;30.194;-97.880;2023-03-21T00:25:52;98862.25;;;15.24;45.75
38880;BME280;25887;30.194;-97.880;2023-03-21T00:28:19;98859.72;;;15.21;45.90
38880;BME280;25887;30.194;-97.880;2023-03-21T00:30:46;98850.22;;;15.22;46.45
38880;BME280;25887;30.194;-97.880;2023-03-21T00:33:12;98852.00;;;15.18;46.65
38880;BME280;25887;30.194;-97.880;2023-03-21T00:35:41;98848.56;;;15.18;46.83
38880;BME280;25887;30.194;-97.880;2023-03-21T00:38:09;98859.75;;;15.18;46.69
38880;BME280;25887;30.194;-97.880;2023-03-21T00:40:36;98848.56;;;15.15;47.39
38880;BME280;25887;30.194;-97.880;2023-03-21T00:43:02;98836.53;;;15.09;47.86
38880;BME280;25887;30.194;-97.880;2023-03-21T00:45:28;98826.22;;;15.08;48.59
38880;BME280;25887;30.194;-97.880;2023-03-21T00:47:56;98835.75;;;15.04;48.43
38880;BME280;25887;30.194;-97.880;2023-03-21T00:50:23;98826.28;;;15.00;48.51
38880;BME280;25887;30.194;-97.880;2023-03-21T00:52:50;98805.63;;;14.97;48.72
38880;BME280;25887;30.194;-97.880;2023-03-21T00:55:17;98813.41;;;14.95;49.17
38880;BME280;25887;30.194;-97.880;2023-03-21T00:57:44;98820.31;;;14.93;48.98
38880;BME280;25887;30.194;-97.880;2023-03-21T01:00:13;98814.31;;;14.91;49.11
38880;BME280;25887;30.194;-97.880;2023-03-21T01:02:40;98806.59;;;14.88;49.43
38880;BME280;25887;30.194;-97.880;2023-03-21T01:05:27;98823.00;;;14.87;49.13
38880;BME280;25887;30.194;-97.880;2023-03-21T01:08:14;98827.31;;;14.87;49.29
38880;BME280;25887;30.194;-97.880;2023-03-21T01:10:43;98828.19;;;14.84;49.74
38880;BME280;25887;30.194;-97.880;2023-03-21T01:13:11;98826.50;;;14.80;49.71
38880;BME280;25887;30.194;-97.880;2023-03-21T01:15:51;98821.34;;;14.80;49.53
38880;BME280;25887;30.194;-97.880;2023-03-21T01:18:20;98817.88;;;14.78;49.81
38880;BME280;25887;30.194;-97.880;2023-03-21T01:20:48;98811.88;;;14.76;49.81
38880;BME280;25887;30.194;-97.880;2023-03-21T01:23:15;98816.22;;;14.74;49.97
38880;BME280;25887;30.194;-97.880;2023-03-21T01:25:42;98824.00;;;14.72;50.52
38880;BME280;25887;30.194;-97.880;2023-03-21T01:28:08;98816.28;;;14.68;50.77
38880;BME280;25887;30.194;-97.880;2023-03-21T01:33:47;98823.19;;;14.66;50.20
38880;BME280;25887;30.194;-97.880;2023-03-21T01:36:31;98816.31;;;14.65;50.27
38880;BME280;25887;30.194;-97.880;2023-03-21T01:38:57;98818.84;;;14.68;50.64
38880;BME280;25887;30.194;-97.880;2023-03-21T01:41:35;98824.09;;;14.63;50.57
38880;BME280;25887;30.194;-97.880;2023-03-21T01:44:02;98822.38;;;14.59;50.67
38880;BME280;25887;30.194;-97.880;2023-03-21T01:46:49;98826.66;;;14.62;50.79
38880;BME280;25887;30.194;-97.880;2023-03-21T01:49:26;98819.81;;;14.58;50.93
38880;BME280;25887;30.194;-97.880;2023-03-21T01:52:08;98835.34;;;14.55;51.23
38880;BME280;25887;30.194;-97.880;2023-03-21T01:54:37;98819.06;;;14.48;51.96
38880;BME280;25887;30.194;-97.880;2023-03-21T01:57:11;98828.50;;;14.44;51.99
38880;BME280;25887;30.194;-97.880;2023-03-21T01:59:44;98828.56;;;14.41;52.57
38880;BME280;25887;30.194;-97.880;2023-03-21T02:03:18;98832.00;;;14.40;52.03
38880;BME280;25887;30.194;-97.880;2023-03-21T02:08:17;98840.66;;;14.36;51.82
38880;BME280;25887;30.194;-97.880;2023-03-21T02:10:46;98856.19;;;14.35;52.45
38880;BME280;25887;30.194;-97.880;2023-03-21T02:13:14;98856.16;;;14.36;52.18
38880;BME280;25887;30.194;-97.880;2023-03-21T02:15:58;98861.28;;;14.39;52.29
38880;BME280;25887;30.194;-97.880;2023-03-21T02:40:27;98876.88;;;14.33;52.49
38880;BME280;25887;30.194;-97.880;2023-03-21T02:43:25;98887.22;;;14.33;52.57
38880;BME280;25887;30.194;-97.880;2023-03-21T02:45:58;98879.50;;;14.27;53.07
38880;BME280;25887;30.194;-97.880;2023-03-21T02:48:31;98891.56;;;14.27;52.81
38880;BME280;25887;30.194;-97.880;2023-03-21T02:51:01;98893.31;;;14.25;52.92
38880;BME280;25887;30.194;-97.880;2023-03-21T02:53:32;98896.72;;;14.23;52.60
38880;BME280;25887;30.194;-97.880;2023-03-21T02:56:01;98905.38;;;14.24;52.56
38880;BME280;25887;30.194;-97.880;2023-03-21T02:58:29;98899.31;;;14.22;52.75
38880;BME280;25887;30.194;-97.880;2023-03-21T03:00:57;98900.19;;;14.21;53.11
38880;BME280;25887;30.194;-97.880;2023-03-21T03:03:23;98901.09;;;14.17;53.50
38880;BME280;25887;30.194;-97.880;2023-03-21T03:05:54;98901.97;;;14.17;53.21
38880;BME280;25887;30.194;-97.880;2023-03-21T03:11:23;98922.59;;;14.16;53.20
38880;BME280;25887;30.194;-97.880;2023-03-21T03:14:07;98936.41;;;14.13;53.61
38880;BME280;25887;30.194;-97.880;2023-03-21T03:29:12;98897.69;;;14.06;53.87
38880;BME280;25887;30.194;-97.880;2023-03-21T03:31:42;98893.41;;;14.03;54.05
38880;BME280;25887;30.194;-97.880;2023-03-21T03:34:16;98906.34;;;14.03;53.71
38880;BME280;25887;30.194;-97.880;2023-03-21T03:36:47;98920.97;;;14.03;54.19
38880;BME280;25887;30.194;-97.880;2023-03-21T03:39:17;98922.69;;;14.04;53.83
38880;BME280;25887;30.194;-97.880;2023-03-21T03:41:52;98920.13;;;14.04;54.38
38880;BME280;25887;30.194;-97.880;2023-03-21T03:44:21;98933.03;;;14.02;54.46
38880;BME280;25887;30.194;-97.880;2023-03-21T03:47:12;98943.34;;;14.07;54.06
38880;BME280;25887;30.194;-97.880;2023-03-21T03:49:47;98937.34;;;14.03;54.06
38880;BME280;25887;30.194;-97.880;2023-03-21T03:52:20;98939.06;;;14.03;54.77
38880;BME280;25887;30.194;-97.880;2023-03-21T03:54:49;98916.66;;;14.00;54.80
38880;BME280;25887;30.194;-97.880;2023-03-21T03:57:17;98902.91;;;14.00;55.00
38880;BME280;25887;30.194;-97.880;2023-03-21T03:59:45;98896.00;;;14.00;55.32
38880;BME280;25887;30.194;-97.880;2023-03-21T04:02:12;98912.34;;;14.01;54.80
38880;BME280;25887;30.194;-97.880;2023-03-21T04:04:39;98906.34;;;14.00;55.15
38880;BME280;25887;30.194;-97.880;2023-03-21T04:07:06;98912.38;;;14.02;54.71
38880;BME280;25887;30.194;-97.880;2023-03-21T04:09:33;98914.09;;;14.03;55.16
38880;BME280;25887;30.194;-97.880;2023-03-21T04:11:59;98915.81;;;14.04;55.29
38880;BME280;25887;30.194;-97.880;2023-03-21T04:14:25;98915.81;;;14.04;54.76
38880;BME280;25887;30.194;-97.880;2023-03-21T04:16:52;98913.22;;;14.03;55.15
38880;BME280;25887;30.194;-97.880;2023-03-21T04:19:20;98899.44;;;14.04;55.39
38880;BME280;25887;30.194;-97.880;2023-03-21T04:21:47;98881.34;;;14.01;55.49
38880;BME280;25887;30.194;-97.880;2023-03-21T04:24:13;98871.03;;;13.99;55.68
38880;BME280;25887;30.194;-97.880;2023-03-21T04:26:40;98846.06;;;13.98;56.02
38880;BME280;25887;30.194;-97.880;2023-03-21T04:29:07;98824.59;;;13.94;56.07
38880;BME280;25887;30.194;-97.880;2023-03-21T04:31:33;98809.09;;;13.91;56.40
38880;BME280;25887;30.194;-97.880;2023-03-21T04:34:02;98800.53;;;13.88;56.64
38880;BME280;25887;30.194;-97.880;2023-03-21T04:36:28;98789.34;;;13.84;57.01
38880;BME280;25887;30.194;-97.880;2023-03-21T04:39:06;98769.56;;;13.82;57.09
38880;BME280;25887;30.194;-97.880;2023-03-21T04:41:41;98767.88;;;13.79;57.47
38880;BME280;25887;30.194;-97.880;2023-03-21T04:44:09;98764.44;;;13.76;57.40
38880;BME280;25887;30.194;-97.880;2023-03-21T04:46:36;98776.53;;;13.72;57.38
38880;BME280;25887;30.194;-97.880;2023-03-21T04:49:03;98792.88;;;13.71;nan
38880;BME280;25887;30.194;-97.880;2023-03-21T04:51:32;98796.34;;;13.70;57.98
38880;BME280;25887;30.194;-97.880;2023-03-21T04:53:58;98801.47;;;13.69;57.74
38880;BME280;25887;30.194;-97.880;2023-03-21T04:56:28;98812.66;;;13.69;57.97
38880;BME280;25887;30.194;-97.880;2023-03-21T04:59:07;98816.13;;;13.71;57.55
38880;BME280;25887;30.194;-97.880;2023-03-21T05:01:33;98823.88;;;13.68;57.98
38880;BME280;25887;30.194;-97.880;2023-03-21T05:04:00;98818.69;;;13.68;58.11
38880;BME280;25887;30.194;-97.880;2023-03-21T05:06:27;98818.72;;;13.70;57.39
38880;BME280;25887;30.194;-97.880;2023-03-21T05:08:56;98817.84;;;13.71;57.67
38880;BME280;25887;30.194;-97.880;2023-03-21T05:11:28;98821.28;;;13.71;58.22
38880;BME280;25887;30.194;-97.880;2023-03-21T05:13:55;98812.69;;;13.71;57.72
38880;BME280;25887;30.194;-97.880;2023-03-21T05:16:22;98816.97;;;13.73;57.76
38880;BME280;25887;30.194;-97.880;2023-03-21T05:18:56;98816.97;;;13.73;57.94
38880;BME280;25887;30.194;-97.880;2023-03-21T05:21:24;98829.00;;;13.76;58.04
38880;BME280;25887;30.194;-97.880;2023-03-21T05:23:54;98822.09;;;13.76;57.90
38880;BME280;25887;30.194;-97.880;2023-03-21T05:26:23;98816.94;;;13.76;58.41
38880;BME280;25887;30.194;-97.880;2023-03-21T05:28:49;98823.81;;;13.77;58.08
38880;BME280;25887;30.194;-97.880;2023-03-21T05:31:17;98801.44;;;13.76;58.41
38880;BME280;25887;30.194;-97.880;2023-03-21T05:33:43;98804.88;;;13.77;58.43
38880;BME280;25887;30.194;-97.880;2023-03-21T05:36:10;98808.31;;;13.77;58.70
38880;BME280;25887;30.194;-97.880;2023-03-21T05:38:37;98811.78;;;13.76;58.43
38880;BME280;25887;30.194;-97.880;2023-03-21T05:41:07;98803.16;;;13.76;59.02
38880;BME280;25887;30.194;-97.880;2023-03-21T05:43:33;98804.91;;;13.75;58.41
38880;BME280;25887;30.194;-97.880;2023-03-21T05:45:59;98811.78;;;13.79;58.59
38880;BME280;25887;30.194;-97.880;2023-03-21T05:48:26;98810.91;;;13.80;58.43
38880;BME280;25887;30.194;-97.880;2023-03-21T05:50:53;98816.91;;;13.82;58.56
38880;BME280;25887;30.194;-97.880;2023-03-21T05:53:19;98817.78;;;13.81;58.80
38880;BME280;25887;30.194;-97.880;2023-03-21T05:55:50;98834.97;;;13.84;58.55
38880;BME280;25887;30.194;-97.880;2023-03-21T05:58:16;98835.81;;;13.84;58.50
38880;BME280;25887;30.194;-97.880;2023-03-21T06:00:42;98828.94;;;13.86;58.56
38880;BME280;25887;30.194;-97.880;2023-03-21T06:03:08;98818.63;;;13.86;58.58
38880;BME280;25887;30.194;-97.880;2023-03-21T06:05:34;98816.00;;;13.91;58.29
38880;BME280;25887;30.194;-97.880;2023-03-21T06:08:01;98823.72;;;13.92;58.65
38880;BME280;25887;30.194;-97.880;2023-03-21T06:10:27;98818.56;;;13.92;58.51
38880;BME280;25887;30.194;-97.880;2023-03-21T06:12:53;98815.97;;;13.92;58.47
38880;BME280;25887;30.194;-97.880;2023-03-21T06:15:19;98816.84;;;13.94;58.28
38880;BME280;25887;30.194;-97.880;2023-03-21T06:17:46;98818.56;;;13.96;58.56
38880;BME280;25887;30.194;-97.880;2023-03-21T06:20:12;98823.72;;;13.96;58.86
38880;BME280;25887;30.194;-97.880;2023-03-21T06:22:38;98818.56;;;13.96;58.56
38880;BME280;25887;30.194;-97.880;2023-03-21T06:25:06;98822.84;;;13.97;58.63
38880;BME280;25887;30.194;-97.880;2023-03-21T06:27:33;98805.63;;;13.97;58.46
38880;BME280;25887;30.194;-97.880;2023-03-21T06:30:00;98793.56;;;13.98;58.90
38880;BME280;25887;30.194;-97.880;2023-03-21T06:32:26;98772.91;;;13.98;58.94
38880;BME280;25887;30.194;-97.880;2023-03-21T06:34:52;98776.34;;;13.97;58.67
38880;BME280;25887;30.194;-97.880;2023-03-21T06:37:19;98779.78;;;13.97;58.94
38880;BME280;25887;30.194;-97.880;2023-03-21T06:39:45;98771.16;;;13.98;58.84
38880;BME280;25887;30.194;-97.880;2023-03-21T06:42:12;98775.47;;;13.99;59.02
38880;BME280;25887;30.194;-97.880;2023-03-21T06:44:38;98773.72;;;14.00;58.94
38880;BME280;25887;30.194;-97.880;2023-03-21T06:47:06;98779.78;;;13.97;58.77
38880;BME280;25887;30.194;-97.880;2023-03-21T06:49:32;98788.34;;;14.01;58.93
38880;BME280;25887;30.194;-97.880;2023-03-21T06:51:58;98792.69;;;14.02;58.70
38880;BME280;25887;30.194;-97.880;2023-03-21T06:54:25;98784.91;;;14.05;58.77
38880;BME280;25887;30.194;-97.880;2023-03-21T06:56:51;98774.56;;;14.06;58.66
38880;BME280;25887;30.194;-97.880;2023-03-21T06:59:18;98770.25;;;14.07;58.82
38880;BME280;25887;30.194;-97.880;2023-03-21T07:01:47;98766.78;;;14.06;58.54
38880;BME280;25887;30.194;-97.880;2023-03-21T07:04:13;98763.34;;;14.07;58.80
38880;BME280;25887;30.194;-97.880;2023-03-21T07:06:39;98759.03;;;14.09;58.89
38880;BME280;25887;30.194;-97.880;2023-03-21T07:09:05;98758.19;;;14.09;58.50
38880;BME280;25887;30.194;-97.880;2023-03-21T07:11:33;98751.28;;;14.11;58.77
38880;BME280;25887;30.194;-97.880;2023-03-21T07:14:00;98745.22;;;14.13;58.47
38880;BME280;25887;30.194;-97.880;2023-03-21T07:16:26;98741.78;;;14.13;58.85
38880;BME280;25887;30.194;-97.880;2023-03-21T07:18:53;98745.19;;;14.15;58.95
38880;BME280;25887;30.194;-97.880;2023-03-21T07:21:19;98748.66;;;14.17;58.72
38880;BME280;25887;30.194;-97.880;2023-03-21T07:23:45;98751.22;;;14.18;58.88
38880;BME280;25887;30.194;-97.880;2023-03-21T07:26:12;98760.69;;;14.18;58.82
38880;BME280;25887;30.194;-97.880;2023-03-21T07:28:40;98753.78;;;14.20;58.80
38880;BME280;25887;30.194;-97.880;2023-03-21T07:31:06;98744.31;;;14.19;59.03
38880;BME280;25887;30.194;-97.880;2023-03-21T07:33:34;98745.16;;;14.19;58.72
38880;BME280;25887;30.194;-97.880;2023-03-21T07:36:01;98734.81;;;14.21;58.76
38880;BME280;25887;30.194;-97.880;2023-03-21T07:38:27;98724.47;;;14.21;58.95
38880;BME280;25887;30.194;-97.880;2023-03-21T07:40:57;98708.13;;;14.20;59.38
38880;BME280;25887;30.194;-97.880;2023-03-21T07:43:24;98702.97;;;14.16;59.61
38880;BME280;25887;30.194;-97.880;2023-03-21T07:45:50;98700.41;;;14.16;59.44
38880;BME280;25887;30.194;-97.880;2023-03-21T07:48:16;98698.69;;;14.13;60.20
38880;BME280;25887;30.194;-97.880;2023-03-21T07:50:43;98689.22;;;14.14;59.95
38880;BME280;25887;30.194;-97.880;2023-03-21T07:53:09;98687.50;;;14.13;59.98
38880;BME280;25887;30.194;-97.880;2023-03-21T07:55:38;98697.84;;;14.13;59.69
38880;BME280;25887;30.194;-97.880;2023-03-21T07:58:04;98690.09;;;14.13;60.00
38880;BME280;25887;30.194;-97.880;2023-03-21T08:00:30;98684.94;;;14.13;59.76
38880;BME280;25887;30.194;-97.880;2023-03-21T08:02:58;98686.63;;;14.14;59.89
38880;BME280;25887;30.194;-97.880;2023-03-21T08:05:27;98680.59;;;14.15;59.94
38880;BME280;25887;30.194;-97.880;2023-03-21T08:07:55;98672.84;;;14.16;59.57
38880;BME280;25887;30.194;-97.880;2023-03-21T08:10:23;98670.25;;;14.18;59.55
38880;BME280;25887;30.194;-97.880;2023-03-21T08:12:49;98658.19;;;14.18;59.80
38880;BME280;25887;30.194;-97.880;2023-03-21T08:15:15;98662.47;;;14.19;59.96
38880;BME280;25887;30.194;-97.880;2023-03-21T08:17:42;98653.03;;;14.18;59.94
38880;BME280;25887;30.194;-97.880;2023-03-21T08:20:12;98642.69;;;14.18;59.74
38880;BME280;25887;30.194;-97.880;2023-03-21T08:22:40;98637.50;;;14.20;60.13
38880;BME280;25887;30.194;-97.880;2023-03-21T08:25:09;98640.94;;;14.19;60.48
38880;BME280;25887;30.194;-97.880;2023-03-21T08:27:41;98652.13;;;14.21;60.41
38880;BME280;25887;30.194;-97.880;2023-03-21T08:30:10;98646.13;;;14.19;60.54
38880;BME280;25887;30.194;-97.880;2023-03-21T08:32:38;98644.38;;;14.19;60.53
38880;BME280;25887;30.194;-97.880;2023-03-21T08:35:06;98642.66;;;14.20;60.36
38880;BME280;25887;30.194;-97.880;2023-03-21T08:37:36;98643.53;;;14.19;60.10
38880;BME280;25887;30.194;-97.880;2023-03-21T08:40:03;98644.38;;;14.19;60.60
38880;BME280;25887;30.194;-97.880;2023-03-21T08:42:39;98644.38;;;14.19;60.60
38880;BME280;25887;30.194;-97.880;2023-03-21T08:45:06;98644.38;;;14.21;60.51
38880;BME280;25887;30.194;-97.880;2023-03-21T08:47:32;98651.25;;;14.22;60.35
38880;BME280;25887;30.194;-97.880;2023-03-21T08:49:59;98640.91;;;14.22;60.52
38880;BME280;25887;30.194;-97.880;2023-03-21T08:52:26;98640.88;;;14.23;60.66
38880;BME280;25887;30.194;-97.880;2023-03-21T08:54:53;98641.75;;;14.26;60.63
38880;BME280;25887;30.194;-97.880;2023-03-21T08:57:19;98642.59;;;14.26;60.38
38880;BME280;25887;30.194;-97.880;2023-03-21T08:59:45;98640.84;;;14.28;60.66
38880;BME280;25887;30.194;-97.880;2023-03-21T09:02:15;98633.94;;;14.30;60.53
38880;BME280;25887;30.194;-97.880;2023-03-21T09:04:42;98633.06;;;14.31;60.71
38880;BME280;25887;30.194;-97.880;2023-03-21T09:07:10;98631.34;;;14.33;60.80
38880;BME280;25887;30.194;-97.880;2023-03-21T09:09:37;98633.06;;;14.33;60.69
38880;BME280;25887;30.194;-97.880;2023-03-21T09:12:04;98622.69;;;14.34;60.74
38880;BME280;25887;30.194;-97.880;2023-03-21T09:14:31;98629.56;;;14.35;60.60
38880;BME280;25887;30.194;-97.880;2023-03-21T09:16:57;98618.38;;;14.35;60.72
38880;BME280;25887;30.194;-97.880;2023-03-21T09:19:24;98617.50;;;14.36;60.90
38880;BME280;25887;30.194;-97.880;2023-03-21T09:21:51;98614.91;;;14.37;60.71
38880;BME280;25887;30.194;-97.880;2023-03-21T09:24:19;98611.44;;;14.38;60.53
38880;BME280;25887;30.194;-97.880;2023-03-21T09:26:45;98610.56;;;14.39;60.67
38880;BME280;25887;30.194;-97.880;2023-03-21T09:29:14;98609.72;;;14.40;61.01
38880;BME280;25887;30.194;-97.880;2023-03-21T09:31:41;98614.00;;;14.41;60.71
38880;BME280;25887;30.194;-97.880;2023-03-21T09:34:08;98595.91;;;14.41;60.52
38880;BME280;25887;30.194;-97.880;2023-03-21T09:36:34;98595.03;;;14.42;60.75
38880;BME280;25887;30.194;-97.880;2023-03-21T09:39:02;98597.63;;;14.42;60.65
38880;BME280;25887;30.194;-97.880;2023-03-21T09:44:44;98585.53;;;14.47;60.87
38880;BME280;25887;30.194;-97.880;2023-03-21T09:47:20;98577.78;;;14.47;60.67
38880;BME280;25887;30.194;-97.880;2023-03-21T09:50:00;98579.47;;;14.48;60.90
38880;BME280;25887;30.194;-97.880;2023-03-21T09:52:55;98577.69;;;14.52;60.65
38880;BME280;25887;30.194;-97.880;2023-03-21T09:55:28;98574.25;;;14.52;61.21
38880;BME280;25887;30.194;-97.880;2023-03-21T10:00:36;98561.28;;;14.55;60.96
38880;BME280;25887;30.194;-97.880;2023-03-21T10:03:21;98566.47;;;14.56;60.63
38880;BME280;25887;30.194;-97.880;2023-03-21T10:05:52;98563.03;;;14.56;61.15
38880;BME280;25887;30.194;-97.880;2023-03-21T10:08:34;98566.44;;;14.58;60.94
38880;BME280;25887;30.194;-97.880;2023-03-21T10:11:16;98574.13;;;14.61;60.84
38880;BME280;25887;30.194;-97.880;2023-03-21T10:13:52;98573.31;;;14.59;60.65
38880;BME280;25887;30.194;-97.880;2023-03-21T10:16:27;98580.16;;;14.61;60.97
38880;BME280;25887;30.194;-97.880;2023-03-21T10:18:55;98565.50;;;14.62;60.94
38880;BME280;25887;30.194;-97.880;2023-03-21T10:21:25;98564.63;;;14.63;61.04
38880;BME280;25887;30.194;-97.880;2023-03-21T10:23:55;98568.09;;;14.63;61.19
38880;BME280;25887;30.194;-97.880;2023-03-21T10:26:24;98565.50;;;14.63;60.84
38880;BME280;25887;30.194;-97.880;2023-03-21T10:28:54;98558.56;;;14.65;61.02
38880;BME280;25887;30.194;-97.880;2023-03-21T10:31:24;98554.25;;;14.66;61.26
38880;BME280;25887;30.194;-97.880;2023-03-21T10:33:56;98541.34;;;14.66;60.80
38880;BME280;25887;30.194;-97.880;2023-03-21T10:36:27;98556.81;;;14.67;61.14
38880;BME280;25887;30.194;-97.880;2023-03-21T10:39:07;98541.25;;;14.72;60.93
38880;BME280;25887;30.194;-97.880;2023-03-21T10:41:39;98536.09;;;14.69;60.96
38880;BME280;25887;30.194;-97.880;2023-03-21T10:44:15;98540.41;;;14.70;61.10
38880;BME280;25887;30.194;-97.880;2023-03-21T10:46:57;98539.53;;;14.72;61.19
38880;BME280;25887;30.194;-97.880;2023-03-21T10:49:24;98539.53;;;14.69;61.36
38880;BME280;25887;30.194;-97.880;2023-03-21T10:51:57;98535.22;;;14.71;61.70
38880;BME280;25887;30.194;-97.880;2023-03-21T10:54:28;98526.63;;;14.71;61.63
38880;BME280;25887;30.194;-97.880;2023-03-21T10:56:57;98531.78;;;14.71;61.91
38880;BME280;25887;30.194;-97.880;2023-03-21T10:59:27;98532.63;;;14.70;62.17
38880;BME280;25887;30.194;-97.880;2023-03-21T11:02:01;98531.69;;;14.75;61.46
38880;BME280;25887;30.194;-97.880;2023-03-21T11:04:29;98531.75;;;14.72;61.79
38880;BME280;25887;30.194;-97.880;2023-03-21T11:06:58;98520.56;;;14.72;61.85
38880;BME280;25887;30.194;-97.880;2023-03-21T11:09:45;98515.38;;;14.73;62.06
38880;BME280;25887;30.194;-97.880;2023-03-21T11:12:14;98517.13;;;14.71;62.19
38880;BME280;25887;30.194;-97.880;2023-03-21T11:14:44;98517.97;;;14.72;61.92
38880;BME280;25887;30.194;-97.880;2023-03-21T11:20:16;98523.06;;;14.76;62.52
38880;BME280;25887;30.194;-97.880;2023-03-21T11:22:44;98530.03;;;14.73;62.21
38880;BME280;25887;30.194;-97.880;2023-03-21T11:25:21;98528.25;;;14.75;62.48
38880;BME280;25887;30.194;-97.880;2023-03-21T11:27:52;98537.75;;;14.74;62.53
38880;BME280;25887;30.194;-97.880;2023-03-21T11:30:24;98542.88;;;14.77;62.47
38880;BME280;25887;30.194;-97.880;2023-03-21T11:32:55;98546.31;;;14.80;62.56
38880;BME280;25887;30.194;-97.880;2023-03-21T11:35:24;98540.25;;;14.81;62.17
38880;BME280;25887;30.194;-97.880;2023-03-21T11:37:55;98548.81;;;14.84;62.37
38880;BME280;25887;30.194;-97.880;2023-03-21T11:40:35;98544.47;;;14.88;62.43
38880;BME280;25887;30.194;-97.880;2023-03-21T11:46:11;98545.28;;;14.91;62.45
38880;BME280;25887;30.194;-97.880;2023-03-21T11:48:42;98536.69;;;14.89;62.60
38880;BME280;25887;30.194;-97.880;2023-03-21T11:56:51;98529.81;;;14.88;63.04
38880;BME280;25887;30.194;-97.880;2023-03-21T12:07:12;98546.97;;;14.92;63.16
38880;BME280;25887;30.194;-97.880;2023-03-21T12:16:14;98556.34;;;14.99;62.80
38880;BME280;25887;30.194;-97.880;2023-03-21T12:28:10;98589.00;;;15.08;62.23
38880;BME280;25887;30.194;-97.880;2023-03-21T12:30:54;98596.75;;;15.11;62.54
38880;BME280;25887;30.194;-97.880;2023-03-21T12:39:30;98586.25;;;15.20;62.58
38880;BME280;25887;30.194;-97.880;2023-03-21T12:51:35;98598.28;;;15.23;62.84
38880;BME280;25887;30.194;-97.880;2023-03-21T12:56:30;98594.78;;;15.24;62.89
38880;BME280;25887;30.194;-97.880;2023-03-21T12:59:38;98599.06;;;15.28;62.63
38880;BME280;25887;30.194;-97.880;2023-03-21T13:02:36;98596.47;;;15.28;62.54
38880;BME280;25887;30.194;-97.880;2023-03-21T13:05:30;98593.84;;;15.29;62.66
38880;BME280;25887;30.194;-97.880;2023-03-21T13:10:41;98587.81;;;15.29;62.95
38880;BME280;25887;30.194;-97.880;2023-03-21T13:24:38;98588.50;;;15.40;63.05
38880;BME280;25887;30.194;-97.880;2023-03-21T13:27:06;98583.34;;;15.39;63.01
38880;BME280;25887;30.194;-97.880;2023-03-21T13:29:45;98587.66;;;15.41;63.20
38880;BME280;25887;30.194;-97.880;2023-03-21T13:32:41;98583.25;;;15.45;63.11
38880;BME280;25887;30.194;-97.880;2023-03-21T13:37:38;98595.31;;;15.46;63.42
38880;BME280;25887;30.194;-97.880;2023-03-21T13:40:37;98593.56;;;15.49;63.36
38880;BME280;25887;30.194;-97.880;2023-03-21T13:46:58;98592.59;;;15.53;63.58
38880;BME280;25887;30.194;-97.880;2023-03-21T13:53:21;98602.97;;;15.53;63.46
38880;BME280;25887;30.194;-97.880;2023-03-21T13:56:21;98610.69;;;15.58;63.46
38880;BME280;25887;30.194;-97.880;2023-03-21T14:01:27;98608.91;;;15.60;63.53
38880;BME280;25887;30.194;-97.880;2023-03-21T14:09:23;98609.69;;;15.67;63.40
38880;BME280;25887;30.194;-97.880;2023-03-21T14:11:51;98603.63;;;15.68;63.38
38880;BME280;25887;30.194;-97.880;2023-03-21T14:14:23;98605.34;;;15.69;63.66
38880;BME280;25887;30.194;-97.880;2023-03-21T14:16:54;98604.44;;;15.70;63.62
38880;BME280;25887;30.194;-97.880;2023-03-21T14:19:28;98607.81;;;15.75;63.53
38880;BME280;25887;30.194;-97.880;2023-03-21T14:21:55;98612.97;;;15.76;63.45
38880;BME280;25887;30.194;-97.880;2023-03-21T14:24:22;98614.66;;;15.79;63.99
38880;BME280;25887;30.194;-97.880;2023-03-21T14:26:53;98625.81;;;15.82;63.89
38880;BME280;25887;30.194;-97.880;2023-03-21T14:29:31;98629.22;;;15.86;63.93
38880;BME280;25887;30.194;-97.880;2023-03-21T14:31:58;98633.50;;;15.87;64.01
38880;BME280;25887;30.194;-97.880;2023-03-21T14:34:31;98636.06;;;15.90;64.03
38880;BME280;25887;30.194;-97.880;2023-03-21T14:36:58;98642.91;;;15.93;64.04
38880;BME280;25887;30.194;-97.880;2023-03-21T14:39:31;98644.59;;;15.97;64.11
38880;BME280;25887;30.194;-97.880;2023-03-21T14:42:05;98645.44;;;15.97;63.99
38880;BME280;25887;30.194;-97.880;2023-03-21T14:47:16;98648.75;;;16.05;63.95
38880;BME280;25887;30.194;-97.880;2023-03-21T14:49:43;98645.25;;;16.08;63.87
38880;BME280;25887;30.194;-97.880;2023-03-21T14:52:13;98636.53;;;16.10;64.12
38880;BME280;25887;30.194;-97.880;2023-03-21T14:54:44;98650.34;;;16.12;64.02
38880;BME280;25887;30.194;-97.880;2023-03-21T14:57:14;98653.69;;;16.17;64.01
38880;BME280;25887;30.194;-97.880;2023-03-21T14:59:47;98647.63;;;16.20;64.25
38880;BME280;25887;30.194;-97.880;2023-03-21T15:02:22;98660.47;;;16.25;64.20
38880;BME280;25887;30.194;-97.880;2023-03-21T15:04:51;98675.16;;;16.27;64.14
38880;BME280;25887;30.194;-97.880;2023-03-21T15:07:27;98673.34;;;16.31;64.08
38880;BME280;25887;30.194;-97.880;2023-03-21T15:09:58;98669.81;;;16.35;63.97
38880;BME280;25887;30.194;-97.880;2023-03-21T15:12:26;98674.09;;;16.37;64.03
38880;BME280;25887;30.194;-97.880;2023-03-21T15:14:53;98672.28;;;16.41;63.97